map of JOE home
JOE - Airport
Location
City:  Joensuu, Pohjois-Karjala (Norra Karelen, North Karelia), Finland
ICAO:EFJO
IATA:JOE

Details
Type:Airport (Aerodrome, Airfield)
Use:Public/Civil
Latitude:6239'46"N (62.662906)
Longitude:2936'27"E (29.607550)
Datum:WGS 1984
Elevation:398 ft (121 m)
Variation:12.02E (WMM2015v2 magnetic declination)
0.20 annual change
Runways:2
Longest:8202 × 171 ft (2500 × 52 m), paved

Time
Time Zone:UTC+2 (DST+3)
Local Time:

Weather
METAR:EFJO 041350Z AUTO 15003KT 9000 -SG OVC004 M06/M07 Q1010

Related Locations
Nearby:
Farthest:NZTB: 11069 mi / 17814 km
Terra Nova Bay [Mario Zucchelli Station], AQ

Find:

   beyond  
but within

Other Information
Maps:
NOTAMs:
Links:
Sources:

  
  • flag of Finland
  

Sectional Chart

Flight Planning
at skyvector.com

Satellite Image

Google Maps Satellite view

 

Copyright © 2004-2019 Karl L. Swartz. All rights reserved.
The Great Circle Mapper name and logo are trademarks of the Great Circle Mapper.
All other trademarks mentioned herein belong to their respective owners.
Please see credits for attibutions and further copyright information.

  Follow gcmap on Facebook Follow gcmap on Twitter GCmap on LinkedIn

hCard Microformat

Geo Microformat